Huvudsida
METAR-TAF:

METAR-TAF

Flygplatser :

Al Bahah, Saudiarabien

latitud: 20-18N, longitud: 041-38E, höjd: 1652 m

Aktuellt väderrapport

Denna rapport gjordes för 38 minuter sedan, klockan 19:00 UTC
Vind 4 kt från väst/sydväst
Temperatur 20°C
Fuktighet 60%
Tryck 1021 hPa
Sikt: 6000 m

METAR: OEBA 281900Z 24004KT 6000 NSC 20/12 Q1021 NOSIG

Tid: 22:38 (19:38 UTC)

Väderprognos

Denna rapport gjordes för 8 timmar och 38 minuter sedan, klockan 11:00 UTC
Prognos gäller från 28 kl. 12 UTC till 29 kl. 18 UTC
Vind 12 kt från väst/sydväst
Sikt: 7000 m
Få moln på en höjd av 3000 ft
Temporärt
från 28 kl. 12 UTC till 28 kl. 20 UTC
Sikt: 4000 m
utbrett stoft

TAF: OEBA 281100Z 2812/2918 24012KT 7000 FEW030 TEMPO 2812/2820 4000 DU

Aktuella väderrapporter och prognoser från 4000 flygplatser (METAR- och TAF-rapporter).

De tillgängliga stationerna syns som gula och röda prickar på kartan.

För musen över prickarna för att se namnen på stationerna.

Klicka sedan för att få väderrapporter och prognoser.

För att ändra kartan: Klicka på de gröna knapparna med ett svart kors på för att zooma in; den gröna knappen med ett streck på för att zooma ut; eller på de gröna pilarna för angränsande kartor.


METAR-TAF: